Time;durP1;ratioP1;P1;durP2;ratioP2;P2;SDS_P1;SDS_P2;PMS_P1;PMS_P2;Temp;Humidity;BMP_temperature;BMP_pressure;BME280_temperature;BME280_humidity;BME280_pressure;Samples;Min_cycle;Max_cycle;Signal;HPM_P1;HPM_P2
2023/03/25 06:29:57;;;;;;;24.55;3.97;;;15.70;70.00;;;;;;5322414;23;20081;-79
2023/03/25 06:32:29;;;;;;;33.30;5.18;;;15.70;69.80;;;;;;4865499;29;20064;-78
2023/03/25 06:34:55;;;;;;;32.05;4.55;;;15.70;69.90;;;;;;4865272;29;20080;-80
2023/03/25 06:37:24;;;;;;;30.40;4.43;;;15.70;69.90;;;;;;4863987;29;20097;-80
2023/03/25 06:39:55;;;;;;;32.85;5.00;;;15.80;69.90;;;;;;4865103;29;20049;-80
2023/03/25 06:42:22;;;;;;;24.83;4.63;;;15.80;70.00;;;;;;4865068;29;20081;-79
2023/03/25 06:44:49;;;;;;;33.17;4.20;;;15.80;69.70;;;;;;4864444;29;20053;-77
2023/03/25 06:47:14;;;;;;;25.90;4.18;;;15.80;69.20;;;;;;4864943;29;20545;-79
2023/03/25 06:49:40;;;;;;;17.98;3.70;;;15.80;68.80;;;;;;4865166;29;20037;-81
2023/03/25 06:52:06;;;;;;;26.00;4.32;;;15.80;68.70;;;;;;4861973;29;20064;-76
2023/03/25 06:54:32;;;;;;;32.55;4.40;;;15.80;68.70;;;;;;4864979;29;20452;-76
2023/03/25 06:56:57;;;;;;;31.42;5.03;;;15.90;68.70;;;;;;4864532;29;20073;-76
2023/03/25 06:59:24;;;;;;;23.50;4.82;;;15.90;68.90;;;;;;4863899;29;20042;-75
2023/03/25 07:01:50;;;;;;;34.67;4.60;;;15.90;68.80;;;;;;4864965;29;20052;-76
2023/03/25 07:04:15;;;;;;;30.75;4.72;;;16.00;69.00;;;;;;4864572;29;20037;-71
2023/03/25 07:06:41;;;;;;;24.38;5.30;;;16.00;69.20;;;;;;4864256;29;20046;-76
2023/03/25 07:09:07;;;;;;;26.65;4.68;;;16.00;68.70;;;;;;4863731;29;20064;-76
2023/03/25 07:11:34;;;;;;;22.05;4.05;;;16.00;68.80;;;;;;4864709;29;20045;-75
2023/03/25 07:14:00;;;;;;;27.50;4.68;;;16.10;68.80;;;;;;4858632;29;20169;-76
2023/03/25 07:16:28;;;;;;;28.65;5.18;;;16.10;68.80;;;;;;4851187;29;20485;-77
2023/03/25 07:18:56;;;;;;;23.98;4.20;;;16.10;68.70;;;;;;4862267;29;20053;-76
2023/03/25 07:21:22;;;;;;;26.13;5.03;;;15.90;67.60;;;;;;4864428;29;20052;-76
2023/03/25 07:23:48;;;;;;;36.30;5.20;;;15.90;68.70;;;;;;4846872;29;20364;-75
2023/03/25 07:26:14;;;;;;;22.13;3.45;;;16.00;69.10;;;;;;4845968;29;20054;-76
2023/03/25 07:28:41;;;;;;;26.17;3.17;;;16.00;68.80;;;;;;4863835;29;20095;-75
2023/03/25 07:31:11;;;;;;;21.60;3.28;;;16.00;68.60;;;;;;4864466;29;20185;-76
2023/03/25 07:33:37;;;;;;;20.80;3.08;;;16.00;68.60;;;;;;4864499;29;20049;-75
2023/03/25 07:36:05;;;;;;;21.17;3.60;;;16.00;68.80;;;;;;4865599;29;20061;-76
2023/03/25 07:38:31;;;;;;;13.90;2.30;;;16.00;68.80;;;;;;4865252;29;20056;-76
2023/03/25 07:41:00;;;;;;;17.27;2.13;;;16.00;68.90;;;;;;4865309;29;20052;-80
2023/03/25 07:43:26;;;;;;;8.77;1.60;;;16.10;68.90;;;;;;4862471;29;20450;-74
2023/03/25 07:45:53;;;;;;;12.27;2.03;;;16.10;68.70;;;;;;4863616;29;20025;-75
2023/03/25 07:48:18;;;;;;;11.80;1.63;;;16.10;68.50;;;;;;4863471;29;20041;-77
2023/03/25 07:50:44;;;;;;;11.25;1.77;;;16.10;68.50;;;;;;4862464;29;20469;-74
2023/03/25 07:53:10;;;;;;;8.60;1.73;;;16.10;68.40;;;;;;4863296;29;20079;-80
2023/03/25 07:55:36;;;;;;;8.10;1.52;;;16.10;68.20;;;;;;4863294;29;20041;-75
2023/03/25 07:58:02;;;;;;;8.35;1.60;;;16.10;68.20;;;;;;4863098;29;20057;-75
2023/03/25 08:00:29;;;;;;;7.63;1.35;;;16.10;68.10;;;;;;4863362;29;20077;-75
2023/03/25 08:02:55;;;;;;;8.38;1.77;;;16.10;67.90;;;;;;4863430;29;20089;-76
2023/03/25 08:05:21;;;;;;;8.90;1.92;;;16.10;67.90;;;;;;4862815;29;20038;-76
2023/03/25 08:07:51;;;;;;;11.05;1.80;;;16.10;68.10;;;;;;4862679;29;20140;-76
2023/03/25 08:10:18;;;;;;;8.70;1.40;;;16.10;67.90;;;;;;4862962;29;20041;-75
2023/03/25 08:12:44;;;;;;;9.07;1.48;;;16.10;67.80;;;;;;4863043;29;20100;-75
2023/03/25 08:15:13;;;;;;;8.02;2.10;;;16.00;67.70;;;;;;4863172;29;20350;-81
2023/03/25 08:17:39;;;;;;;10.48;2.08;;;16.10;67.70;;;;;;4862965;29;20042;-73
2023/03/25 08:20:06;;;;;;;8.05;2.40;;;16.10;67.70;;;;;;4862410;29;20496;-77
2023/03/25 08:22:32;;;;;;;8.10;2.08;;;16.10;67.70;;;;;;4860504;29;20045;-76
2023/03/25 08:24:58;;;;;;;8.98;1.48;;;16.10;67.40;;;;;;4862121;29;20186;-78
2023/03/25 08:27:24;;;;;;;8.68;2.15;;;16.00;67.20;;;;;;4861637;29;20136;-77
2023/03/25 08:29:54;;;;;;;11.02;1.75;;;16.00;67.10;;;;;;4862611;29;20049;-75
2023/03/25 08:32:20;;;;;;;9.27;2.03;;;16.00;67.00;;;;;;4862195;29;20058;-76
2023/03/25 08:34:47;;;;;;;10.88;2.95;;;16.00;67.00;;;;;;4861957;29;20140;-75
2023/03/25 08:37:14;;;;;;;10.65;2.33;;;16.00;67.50;;;;;;4861503;29;20060;-76
2023/03/25 08:39:43;;;;;;;15.38;2.97;;;16.00;67.20;;;;;;4862719;29;20055;-77
2023/03/25 08:42:11;;;;;;;12.85;2.15;;;16.10;67.30;;;;;;4861707;29;20057;-75
2023/03/25 08:44:37;;;;;;;13.55;2.63;;;16.00;66.80;;;;;;4863322;29;20050;-78
2023/03/25 08:47:04;;;;;;;14.48;2.42;;;16.00;67.00;;;;;;4862887;29;20037;-74
2023/03/25 08:49:29;;;;;;;14.27;2.20;;;16.00;67.70;;;;;;4862737;29;20516;-74
2023/03/25 08:51:57;;;;;;;14.20;2.65;;;16.10;67.20;;;;;;4862759;29;20149;-76
2023/03/25 08:54:24;;;;;;;11.15;2.25;;;16.10;67.10;;;;;;4863227;29;20053;-75
2023/03/25 08:56:51;;;;;;;8.82;2.08;;;16.10;67.00;;;;;;4862621;29;20128;-74
2023/03/25 08:59:17;;;;;;;13.65;2.72;;;16.10;67.00;;;;;;4863178;29;20049;-76
2023/03/25 09:01:43;;;;;;;13.48;2.45;;;16.20;67.00;;;;;;4862992;29;20061;-74
2023/03/25 09:04:09;;;;;;;16.35;2.33;;;16.20;67.00;;;;;;4862863;29;20114;-75
2023/03/25 09:06:36;;;;;;;11.48;2.63;;;16.20;67.00;;;;;;4862966;29;20053;-76
2023/03/25 09:09:04;;;;;;;14.43;3.60;;;16.20;66.90;;;;;;4862722;29;20129;-76
2023/03/25 09:11:33;;;;;;;20.45;3.05;;;16.20;66.90;;;;;;4862710;29;20556;-75
2023/03/25 09:14:02;;;;;;;10.25;2.17;;;16.20;67.00;;;;;;4862059;29;20428;-76
2023/03/25 09:16:29;;;;;;;14.43;2.67;;;16.20;67.00;;;;;;4862959;29;20418;-75
2023/03/25 09:18:55;;;;;;;12.43;3.60;;;16.20;66.90;;;;;;4862018;29;20053;-77
2023/03/25 09:21:21;;;;;;;13.63;2.70;;;16.20;66.80;;;;;;4861976;29;20463;-76
2023/03/25 09:23:46;;;;;;;15.93;2.33;;;16.20;66.70;;;;;;4863108;29;20045;-75
2023/03/25 09:26:12;;;;;;;15.57;2.50;;;16.20;66.70;;;;;;4862381;29;20050;-76
2023/03/25 09:28:38;;;;;;;15.43;2.38;;;16.20;66.60;;;;;;4862626;29;20037;-76
2023/03/25 09:31:04;;;;;;;20.45;3.58;;;16.20;66.60;;;;;;4861863;29;20145;-76
2023/03/25 09:33:30;;;;;;;14.32;2.80;;;16.20;66.40;;;;;;4862403;29;20132;-78
2023/03/25 09:35:56;;;;;;;21.33;3.55;;;16.20;65.90;;;;;;4862839;29;20049;-75
2023/03/25 09:38:22;;;;;;;20.80;3.30;;;16.20;65.60;;;;;;4862514;29;20425;-76
2023/03/25 09:40:48;;;;;;;19.05;3.42;;;16.20;65.00;;;;;;4862177;29;20046;-77
2023/03/25 09:43:38;;;;;;;16.23;3.03;;;16.20;64.50;;;;;;4864646;29;20089;-75
2023/03/25 09:46:05;;;;;;;17.02;3.90;;;16.20;64.10;;;;;;4865944;29;20109;-77
2023/03/25 09:48:37;;;;;;;19.88;4.35;;;16.20;64.20;;;;;;4865681;29;20504;-77
2023/03/25 09:51:34;;;;;;;23.52;4.68;;;16.20;63.70;;;;;;4866050;29;20410;-76
2023/03/25 09:54:19;;;;;;;15.45;3.78;;;16.20;63.80;;;;;;4861110;29;20062;-74
2023/03/25 09:56:46;;;;;;;25.98;3.83;;;16.10;62.30;;;;;;4865882;29;20057;-74
2023/03/25 09:59:38;;;;;;;23.58;3.65;;;16.10;64.00;;;;;;4864831;29;20090;-76
2023/03/25 10:02:11;;;;;;;28.33;4.63;;;16.10;64.30;;;;;;4865244;29;20073;-76
2023/03/25 10:04:46;;;;;;;36.38;4.40;;;16.20;64.40;;;;;;4865245;29;20465;-72
2023/03/25 10:07:29;;;;;;;21.25;4.05;;;16.20;64.70;;;;;;4865579;29;20525;-75
2023/03/25 10:09:58;;;;;;;26.02;4.65;;;16.20;65.30;;;;;;4865377;29;20057;-76
2023/03/25 10:12:30;;;;;;;21.42;3.90;;;16.10;64.00;;;;;;4861461;29;20140;-77
2023/03/25 10:15:02;;;;;;;21.50;3.67;;;16.10;65.30;;;;;;4855460;29;20050;-77
2023/03/25 10:17:33;;;;;;;25.13;4.72;;;16.10;65.50;;;;;;4854033;29;20061;-76
2023/03/25 10:20:44;;;;;;;19.48;3.72;;;16.20;65.90;;;;;;4847649;29;20050;-75
2023/03/25 10:23:46;;;;;;;18.63;4.40;;;16.20;66.20;;;;;;4838602;29;20465;-75
2023/03/25 10:26:31;;;;;;;25.95;4.03;;;16.20;65.00;;;;;;4846942;29;20133;-75
2023/03/25 10:29:02;;;;;;;20.83;3.97;;;16.20;66.30;;;;;;4847284;29;20121;-75
2023/03/25 10:31:34;;;;;;;23.05;3.65;;;16.20;66.50;;;;;;4854464;29;20116;-77
2023/03/25 10:34:05;;;;;;;19.88;4.00;;;16.20;66.70;;;;;;4865322;29;20049;-76
2023/03/25 10:36:34;;;;;;;25.33;4.97;;;16.20;66.90;;;;;;4865319;29;20046;-77
2023/03/25 10:39:01;;;;;;;22.02;3.65;;;16.20;66.90;;;;;;4864319;29;20049;-74
2023/03/25 10:41:37;;;;;;;20.70;4.50;;;16.20;67.00;;;;;;4865018;29;20060;-75
2023/03/25 10:44:10;;;;;;;19.92;3.35;;;16.20;67.20;;;;;;4865311;29;20076;-76
2023/03/25 10:46:46;;;;;;;21.05;3.70;;;16.20;67.30;;;;;;4864765;29;20469;-78
2023/03/25 10:49:24;;;;;;;19.30;3.72;;;16.20;67.60;;;;;;4849780;29;20453;-78
2023/03/25 10:51:56;;;;;;;23.77;4.28;;;16.10;67.40;;;;;;4864544;29;20045;-75
2023/03/25 10:54:26;;;;;;;24.65;4.20;;;16.10;66.80;;;;;;4864180;29;20041;-78
2023/03/25 10:56:57;;;;;;;19.27;3.85;;;16.10;66.70;;;;;;4865163;29;20045;-78
2023/03/25 10:59:44;;;;;;;25.55;8.90;;;16.10;66.80;;;;;;4865117;29;20361;-78
2023/03/25 11:02:19;;;;;;;20.17;7.65;;;16.10;67.30;;;;;;4864497;29;20057;-77
2023/03/25 11:04:49;;;;;;;20.55;3.95;;;16.10;68.10;;;;;;4864156;29;20061;-73
2023/03/25 11:07:29;;;;;;;16.70;3.78;;;16.10;67.00;;;;;;4864635;29;20094;-73
2023/03/25 11:10:14;;;;;;;23.40;5.00;;;16.10;66.90;;;;;;4864891;29;20085;-79
2023/03/25 11:12:45;;;;;;;23.23;5.45;;;16.20;69.40;;;;;;4864651;29;20053;-78
2023/03/25 11:15:19;;;;;;;16.70;4.28;;;16.20;70.60;;;;;;4863802;29;20453;-74
2023/03/25 11:17:47;;;;;;;15.98;4.47;;;16.20;71.70;;;;;;4865158;29;20053;-73
2023/03/25 11:20:24;;;;;;;11.65;3.70;;;16.20;71.30;;;;;;4864806;29;20045;-78
2023/03/25 11:22:53;;;;;;;17.38;3.60;;;16.20;70.10;;;;;;4847819;29;20057;-75
2023/03/25 11:25:23;;;;;;;24.88;4.78;;;16.20;69.10;;;;;;4864122;29;20052;-74
2023/03/25 11:27:57;;;;;;;19.02;4.25;;;16.20;69.20;;;;;;4864132;29;20050;-74
2023/03/25 11:30:24;;;;;;;17.48;3.78;;;16.20;68.60;;;;;;4863956;29;20057;-73
2023/03/25 11:33:02;;;;;;;23.23;4.35;;;16.20;67.40;;;;;;4864425;29;20153;-73
2023/03/25 11:35:30;;;;;;;18.83;3.78;;;16.20;66.70;;;;;;4864533;29;20121;-74
2023/03/25 11:38:01;;;;;;;18.05;4.57;;;16.20;66.70;;;;;;4847862;29;20122;-73
2023/03/25 11:40:29;;;;;;;20.60;3.28;;;16.30;66.90;;;;;;4864845;29;20397;-73
2023/03/25 11:42:57;;;;;;;23.42;4.07;;;16.30;67.10;;;;;;4863170;29;20093;-74
2023/03/25 11:45:37;;;;;;;30.75;5.55;;;16.30;67.30;;;;;;4863886;29;20426;-74
2023/03/25 11:48:22;;;;;;;23.88;4.32;;;16.30;67.50;;;;;;4863154;29;20090;-74
2023/03/25 11:50:58;;;;;;;17.65;3.92;;;16.30;67.70;;;;;;4864263;29;20125;-73
2023/03/25 11:53:25;;;;;;;16.10;3.38;;;16.40;67.80;;;;;;4863987;29;20140;-74
2023/03/25 11:55:58;;;;;;;20.25;4.10;;;16.40;68.10;;;;;;4863252;29;20122;-73
2023/03/25 11:58:29;;;;;;;18.75;3.70;;;16.40;68.20;;;;;;4863331;29;20049;-73
2023/03/25 12:01:06;;;;;;;13.65;4.05;;;16.40;68.40;;;;;;4864040;29;20395;-74
2023/03/25 12:03:34;;;;;;;17.98;3.67;;;16.40;68.50;;;;;;4864114;29;20053;-74
2023/03/25 12:06:05;;;;;;;20.52;4.22;;;16.40;68.40;;;;;;4861785;29;20053;-74
2023/03/25 12:08:52;;;;;;;19.00;3.67;;;16.40;68.60;;;;;;4863764;29;20060;-75
2023/03/25 12:11:34;;;;;;;22.08;3.15;;;16.40;68.70;;;;;;4857892;29;20053;-74
2023/03/25 12:14:15;;;;;;;19.80;4.10;;;16.30;68.50;;;;;;4862475;29;20053;-74
2023/03/25 12:17:00;;;;;;;21.95;3.70;;;16.30;68.60;;;;;;4863499;29;20053;-75
2023/03/25 12:19:31;;;;;;;32.40;4.78;;;16.30;68.70;;;;;;4845281;29;20050;-73
2023/03/25 12:22:20;;;;;;;24.95;4.85;;;16.30;68.60;;;;;;4851967;29;20070;-74
2023/03/25 12:25:22;;;;;;;18.52;3.38;;;16.30;67.90;;;;;;4862770;29;20117;-76
2023/03/25 12:28:35;;;;;;;15.93;2.95;;;16.30;67.70;;;;;;4856120;29;20089;-76
2023/03/25 12:31:26;;;;;;;14.57;3.35;;;16.30;67.60;;;;;;4859779;29;20061;-76
2023/03/25 12:34:10;;;;;;;17.08;2.85;;;16.20;67.10;;;;;;4844938;29;20054;-76
2023/03/25 12:36:54;;;;;;;14.13;2.85;;;16.20;67.00;;;;;;4859297;29;20054;-75
2023/03/25 12:39:40;;;;;;;14.05;2.88;;;16.20;67.10;;;;;;4862401;29;20053;-75
2023/03/25 12:42:36;;;;;;;15.65;2.85;;;16.20;66.90;;;;;;4862303;29;20358;-75
2023/03/25 12:45:12;;;;;;;14.85;3.15;;;16.20;67.00;;;;;;4860389;29;20082;-76
2023/03/25 12:48:01;;;;;;;13.65;3.10;;;16.20;66.90;;;;;;4862044;29;20050;-75
2023/03/25 12:50:40;;;;;;;13.45;3.90;;;16.10;66.80;;;;;;4860871;29;20133;-78
2023/03/25 12:53:31;;;;;;;10.98;2.85;;;16.10;67.00;;;;;;4860748;29;20488;-74
2023/03/25 12:56:15;;;;;;;10.20;2.10;;;16.10;67.00;;;;;;4861527;29;20102;-74
2023/03/25 12:59:01;;;;;;;12.27;2.55;;;16.10;67.10;;;;;;4859942;29;20081;-75
2023/03/25 13:02:01;;;;;;;15.45;3.20;;;16.10;67.20;;;;;;4862478;29;20060;-74
2023/03/25 13:04:56;;;;;;;11.32;2.50;;;16.10;67.10;;;;;;4859875;29;20540;-76
2023/03/25 13:07:31;;;;;;;11.10;2.75;;;16.10;67.10;;;;;;4852864;29;20409;-78
2023/03/25 13:10:04;;;;;;;11.05;2.35;;;16.10;67.00;;;;;;4845997;29;20049;-75
2023/03/25 13:12:32;;;;;;;11.77;3.22;;;16.10;67.00;;;;;;4859368;29;20053;-73
2023/03/25 13:15:06;;;;;;;13.70;3.20;;;16.10;66.90;;;;;;4862027;29;20041;-73
2023/03/25 13:17:58;;;;;;;13.73;2.97;;;16.10;66.80;;;;;;4860343;29;20072;-74
2023/03/25 13:20:28;;;;;;;7.70;2.17;;;16.10;67.30;;;;;;4856467;29;20085;-77
2023/03/25 13:23:00;;;;;;;11.88;2.80;;;16.10;66.80;;;;;;4861906;29;20149;-74
2023/03/25 13:25:53;;;;;;;16.17;3.00;;;16.00;66.80;;;;;;4843313;29;20045;-76
2023/03/25 13:28:46;;;;;;;17.95;2.80;;;15.90;66.50;;;;;;4861518;29;20077;-75
2023/03/25 13:31:18;;;;;;;15.43;2.75;;;15.80;67.00;;;;;;4853955;29;20053;-81
2023/03/25 13:33:52;;;;;;;16.08;2.45;;;15.80;67.10;;;;;;4860839;29;20080;-79
2023/03/25 13:36:30;;;;;;;12.88;2.22;;;15.70;67.20;;;;;;4861571;29;20373;-81
2023/03/25 13:39:00;;;;;;;13.07;3.03;;;15.70;67.20;;;;;;4860905;29;20373;-74
2023/03/25 13:41:35;;;;;;;12.77;2.30;;;15.70;67.50;;;;;;4859539;29;20057;-78
2023/03/25 13:44:09;;;;;;;11.32;2.33;;;15.70;67.50;;;;;;4861742;29;20485;-76
2023/03/25 13:47:20;;;;;;;12.73;2.85;;;15.60;67.50;;;;;;4860724;29;20053;-78
2023/03/25 13:50:28;;;;;;;9.52;2.20;;;15.60;67.40;;;;;;4843711;29;20427;-79
2023/03/25 13:53:02;;;;;;;8.05;2.00;;;15.60;67.60;;;;;;4846329;29;20053;-77
2023/03/25 13:55:36;;;;;;;10.35;2.53;;;15.60;67.70;;;;;;4864816;29;20072;-78
2023/03/25 13:58:11;;;;;;;7.95;1.75;;;15.50;67.50;;;;;;4859306;29;20054;-77
2023/03/25 14:00:55;;;;;;;7.40;2.22;;;15.50;67.60;;;;;;4864153;29;20113;-80
2023/03/25 14:03:39;;;;;;;;;;;15.50;67.70;;;;;;4881086;29;20464;-73
2023/03/25 14:06:30;;;;;;;6.70;1.60;;;15.50;67.50;;;;;;4891104;29;19928;-78
2023/03/25 14:08:59;;;;;;;7.97;1.95;;;15.50;67.70;;;;;;4879894;29;20048;-79
2023/03/25 14:11:29;;;;;;;11.80;2.85;;;15.50;67.70;;;;;;4879319;29;20154;-73
2023/03/25 14:13:59;;;;;;;7.78;1.30;;;15.40;67.70;;;;;;4880330;29;20060;-77
2023/03/25 14:16:47;;;;;;;4.95;1.70;;;15.40;67.80;;;;;;4877940;29;20056;-79
2023/03/25 14:19:26;;;;;;;9.85;2.33;;;15.40;67.60;;;;;;4862638;29;20052;-76
2023/03/25 14:21:52;;;;;;;8.05;1.65;;;15.40;67.80;;;;;;4878104;29;20060;-78
2023/03/25 14:24:25;;;;;;;7.93;1.90;;;15.40;67.80;;;;;;4876804;29;20045;-71
2023/03/25 14:26:54;;;;;;;8.80;2.00;;;15.40;67.70;;;;;;4879899;29;20045;-76
2023/03/25 14:29:32;;;;;;;7.00;1.75;;;15.40;67.70;;;;;;4875523;29;20468;-74
2023/03/25 14:32:01;;;;;;;7.90;2.00;;;15.40;67.60;;;;;;4883202;29;20416;-73
2023/03/25 14:34:26;;;;;;;7.70;2.17;;;15.40;67.70;;;;;;4880918;29;20053;-80
2023/03/25 14:36:54;;;;;;;9.88;2.42;;;15.40;67.60;;;;;;4882467;29;20060;-80
2023/03/25 14:39:29;;;;;;;5.30;1.48;;;15.40;67.70;;;;;;4877654;29;20448;-79
2023/03/25 14:42:07;;;;;;;7.93;1.77;;;15.40;67.70;;;;;;4883274;29;20132;-79
2023/03/25 14:44:37;;;;;;;5.50;1.10;;;15.40;67.60;;;;;;4875647;29;20061;-77
2023/03/25 14:47:21;;;;;;;7.28;1.45;;;15.40;67.70;;;;;;4861408;29;20091;-75
2023/03/25 14:50:11;;;;;;;6.65;1.50;;;15.40;67.70;;;;;;4862625;29;20042;-77
2023/03/25 14:53:05;;;;;;;6.97;1.77;;;15.30;67.60;;;;;;4864123;29;20049;-74
2023/03/25 14:55:54;;;;;;;7.90;1.98;;;15.30;67.60;;;;;;4862535;29;20069;-73
2023/03/25 14:58:25;;;;;;;7.35;1.30;;;15.30;67.60;;;;;;4865144;29;20053;-72
2023/03/25 15:01:13;;;;;;;5.32;1.42;;;15.40;67.60;;;;;;4864065;29;20057;-72
2023/03/25 15:03:46;;;;;;;13.13;2.28;;;15.40;67.50;;;;;;4864932;29;20053;-74
2023/03/25 15:06:17;;;;;;;6.50;1.45;;;15.40;67.40;;;;;;4864538;29;20046;-73
2023/03/25 15:08:55;;;;;;;11.75;1.80;;;15.40;67.40;;;;;;4864225;29;20136;-74
2023/03/25 15:11:33;;;;;;;10.75;1.92;;;15.40;67.20;;;;;;4862715;29;20054;-73
2023/03/25 15:14:02;;;;;;;9.77;1.83;;;15.30;67.00;;;;;;4865175;29;20432;-71
2023/03/25 15:16:31;;;;;;;7.15;1.50;;;15.30;67.00;;;;;;4864528;29;20061;-71
2023/03/25 15:19:00;;;;;;;6.72;1.67;;;15.30;67.10;;;;;;4864790;29;20061;-73
2023/03/25 15:21:31;;;;;;;11.90;3.33;;;15.30;67.30;;;;;;4864799;29;20064;-74
2023/03/25 15:24:10;;;;;;;9.88;2.72;;;15.30;67.80;;;;;;4862407;29;20084;-76
2023/03/25 15:26:39;;;;;;;13.13;2.83;;;15.30;67.90;;;;;;4864432;29;20132;-72
2023/03/25 15:29:24;;;;;;;10.75;2.25;;;15.30;68.00;;;;;;4864784;29;20384;-74
2023/03/25 15:32:27;;;;;;;10.05;2.28;;;15.40;68.00;;;;;;4864155;29;20072;-73
2023/03/25 15:35:10;;;;;;;17.75;2.47;;;15.40;68.00;;;;;;4864007;29;20140;-72
2023/03/25 15:37:57;;;;;;;14.13;3.08;;;15.40;68.00;;;;;;4863568;29;20064;-73
2023/03/25 15:40:44;;;;;;;14.30;2.72;;;15.40;68.40;;;;;;4863864;29;20076;-73
2023/03/25 15:43:19;;;;;;;10.98;3.10;;;15.40;68.50;;;;;;4863258;29;20434;-74
2023/03/25 15:46:00;;;;;;;10.13;2.70;;;15.40;69.40;;;;;;4864780;29;20346;-74
2023/03/25 15:48:41;;;;;;;9.75;2.40;;;15.50;71.60;;;;;;4864006;29;20053;-73
2023/03/25 15:51:37;;;;;;;13.57;2.90;;;15.50;71.50;;;;;;4863809;29;20150;-73
2023/03/25 15:54:22;;;;;;;12.68;2.78;;;15.50;71.40;;;;;;4863578;29;20051;-73
2023/03/25 15:56:49;;;;;;;15.20;2.90;;;15.60;71.50;;;;;;4863260;29;20368;-77
2023/03/25 15:59:29;;;;;;;9.13;2.83;;;15.60;70.20;;;;;;4863922;29;20457;-73
2023/03/25 16:01:56;;;;;;;12.30;2.50;;;15.60;69.10;;;;;;4863971;29;20045;-73
2023/03/25 16:04:31;;;;;;;11.45;2.67;;;15.60;68.90;;;;;;4863767;29;20041;-73
2023/03/25 16:06:58;;;;;;;14.75;2.97;;;15.60;69.10;;;;;;4863125;29;20041;-74
2023/03/25 16:09:26;;;;;;;21.38;3.10;;;15.60;69.50;;;;;;4862637;29;20189;-73
2023/03/25 16:12:00;;;;;;;13.02;2.80;;;15.60;70.50;;;;;;4863826;29;20045;-73
2023/03/25 16:14:31;;;;;;;15.50;2.80;;;15.60;70.40;;;;;;4862941;29;20512;-71
2023/03/25 16:17:00;;;;;;;18.00;3.28;;;15.60;70.70;;;;;;4863638;29;20056;-74
2023/03/25 16:19:42;;;;;;;21.25;3.35;;;15.70;71.00;;;;;;4862975;29;20041;-75
2023/03/25 16:22:33;;;;;;;21.30;2.55;;;15.70;71.30;;;;;;4863388;29;20046;-75
2023/03/25 16:25:03;;;;;;;20.30;3.38;;;15.70;69.80;;;;;;4845336;29;20469;-74
2023/03/25 16:27:43;;;;;;;12.90;3.22;;;15.70;69.80;;;;;;4843978;29;20062;-73
2023/03/25 16:30:35;;;;;;;23.58;2.60;;;15.70;70.80;;;;;;4850758;29;20061;-73
2023/03/25 16:33:07;;;;;;;16.08;2.58;;;15.70;71.10;;;;;;4844691;29;20098;-74
2023/03/25 16:35:37;;;;;;;20.40;3.40;;;15.70;71.40;;;;;;4844831;29;20054;-74
2023/03/25 16:38:03;;;;;;;17.00;3.50;;;15.70;71.60;;;;;;4845514;29;20058;-74
2023/03/25 16:40:40;;;;;;;17.88;3.25;;;15.80;71.80;;;;;;4850359;29;20053;-73
2023/03/25 16:43:15;;;;;;;9.80;2.53;;;15.80;72.10;;;;;;4863232;29;20057;-74
2023/03/25 16:45:44;;;;;;;9.70;2.55;;;15.80;72.20;;;;;;4863099;29;20162;-73
2023/03/25 16:48:21;;;;;;;12.32;2.13;;;15.80;72.20;;;;;;4862218;29;20454;-74
2023/03/25 16:50:48;;;;;;;14.68;2.70;;;15.80;72.40;;;;;;4858567;29;20464;-75
2023/03/25 16:53:16;;;;;;;20.92;2.65;;;15.80;72.20;;;;;;4852440;29;20033;-73
2023/03/25 16:55:49;;;;;;;13.60;2.38;;;15.80;72.10;;;;;;4862748;29;20132;-75
2023/03/25 16:58:26;;;;;;;12.35;2.55;;;15.80;72.10;;;;;;4860775;29;20057;-77
2023/03/25 17:00:54;;;;;;;18.20;2.80;;;15.80;72.00;;;;;;4862248;29;20056;-75
2023/03/25 17:03:44;;;;;;;16.77;3.08;;;15.80;72.50;;;;;;4844614;29;20064;-76
2023/03/25 17:06:26;;;;;;;13.88;2.55;;;15.80;71.80;;;;;;4843988;29;20434;-77
2023/03/25 17:08:55;;;;;;;10.18;2.40;;;15.80;71.80;;;;;;4846466;29;20057;-75
2023/03/25 17:11:25;;;;;;;12.93;2.88;;;15.80;71.80;;;;;;4862870;29;20049;-77
2023/03/25 17:14:04;;;;;;;14.93;2.85;;;15.80;71.90;;;;;;4862891;29;20413;-77
2023/03/25 17:16:31;;;;;;;12.98;2.72;;;15.80;71.80;;;;;;4862688;29;20055;-76
2023/03/25 17:18:59;;;;;;;12.55;2.40;;;15.80;71.80;;;;;;4862296;29;20467;-78
2023/03/25 17:21:31;;;;;;;21.02;2.80;;;15.80;72.40;;;;;;4852744;29;20058;-79
